Aviation Digital Data Service (ADDS)

Output produced by METARs form (2017 UTC 20 August 2019)
found at http://www.aviationweather.gov/metar/data/
 
Forecast for: VVCI (CAT VI , VN)
Text: TAF VVCI 201700Z 2018/2118 32007KT 9999 SCT020
Forecast period: 1800 UTC 20 August 2019 to 1800 UTC 21 August 2019
Forecast type: FROM: standard forecast or significant change
Winds: from the NW (320 degrees) at 8 MPH (7 knots; 3.6 m/s)
Visibility: 6 or more miles 10+ km)
Ceiling: at least 12,000 feet AGL
Clouds: scattered clouds at 2000 feet AGL
Weather: no significant weather forecast for this period
Text: TEMPO 2018/2024 05015G25KT 3000 +TSRA BKN010 SCT023CB
Forecast period: 1800 UTC 20 August 2019 to 0000 UTC 21 August 2019
Forecast type: TEMPORARY: The following changes expected for less than half the time period
Winds: from the NE (50 degrees) at 17 MPH (15 knots; 7.7 m/s)
gusting to 29 MPH (25 knots; 12.9 m/s)
Visibility: 1.86 miles (2.99 km)
Ceiling: 1000 feet AGL
Clouds: broken clouds at 1000 feet AGL
scattered clouds at 2300 feet AGL
Weather: +TSRA  (heavy rain associated with thunderstorm(s))
Text: TEMPO 2106/2112 4000 TSRA BKN015 FEW027CB
Forecast period: 0600 to 1200 UTC 21 August 2019
Forecast type: TEMPORARY: The following changes expected for less than half the time period
Visibility: 2.49 miles (4.01 km)
Ceiling: 1500 feet AGL
Clouds: broken clouds at 1500 feet AGL
few clouds at 2700 feet AGL
Weather: TSRA  (rain associated with thunderstorm(s))